Time;durP1;ratioP1;P1;durP2;ratioP2;P2;SDS_P1;SDS_P2;PMS_P1;PMS_P2;Temp;Humidity;BMP_temperature;BMP_pressure;BME280_temperature;BME280_humidity;BME280_pressure;Samples;Min_cycle;Max_cycle;Signal;HPM_P1;HPM_P2
2020/12/19 00:01:47;;;;;;;132.67;61.88;;;;;;;-2.57;86.84;99164.50;1839270;76;21623;-83
2020/12/19 00:04:13;;;;;;;120.00;62.13;;;;;;;-2.60;86.67;99167.50;1868141;76;20989;-83
2020/12/19 00:06:44;;;;;;;130.22;66.95;;;;;;;-2.66;86.95;99162.86;1868022;76;21225;-77
2020/12/19 00:09:11;;;;;;;112.57;59.80;;;;;;;-2.63;86.85;99161.72;1868209;76;21086;-83
2020/12/19 00:11:37;;;;;;;126.87;63.40;;;;;;;-2.66;86.14;99159.38;1868141;76;22035;-83
2020/12/19 00:14:03;;;;;;;139.32;70.72;;;;;;;-2.73;86.10;99156.59;1839088;76;20966;-83
2020/12/19 00:16:29;;;;;;;137.20;66.87;;;;;;;-2.74;86.26;99162.86;1868112;76;20954;-77
2020/12/19 00:18:56;;;;;;;129.97;67.08;;;;;;;-2.76;86.20;99166.69;1839421;76;21609;-78
2020/12/19 00:21:22;;;;;;;149.87;72.40;;;;;;;-2.87;85.62;99163.88;1868201;76;21065;-83
2020/12/19 00:23:48;;;;;;;132.15;66.85;;;;;;;-2.96;85.53;99160.40;1868121;76;21253;-83
2020/12/19 00:26:13;;;;;;;133.93;63.48;;;;;;;-2.98;85.67;99156.27;1867994;76;20911;-83
2020/12/19 00:28:40;;;;;;;132.73;62.33;;;;;;;-3.04;85.35;99163.05;1868166;76;21994;-78
2020/12/19 00:31:06;;;;;;;157.90;74.85;;;;;;;-3.10;85.50;99166.84;1868133;75;21010;-77
2020/12/19 00:33:33;;;;;;;127.20;62.35;;;;;;;-3.20;85.61;99166.51;1868148;76;21136;-83
2020/12/19 00:35:59;;;;;;;122.75;60.67;;;;;;;-3.25;86.02;99170.13;1868119;75;21351;-83
2020/12/19 00:38:24;;;;;;;123.53;63.58;;;;;;;-3.20;86.34;99169.66;1868086;76;20970;-77
2020/12/19 00:40:53;;;;;;;123.95;63.08;;;;;;;-3.12;86.50;99177.63;1839004;76;21088;-78
2020/12/19 00:43:18;;;;;;;118.15;61.53;;;;;;;-3.08;86.21;99168.83;1867799;76;21081;-83
2020/12/19 00:45:44;;;;;;;121.85;61.80;;;;;;;-3.08;86.37;99174.96;1839380;76;20855;-84
2020/12/19 00:48:10;;;;;;;124.02;62.83;;;;;;;-3.04;86.22;99168.85;1811841;76;22029;-78
2020/12/19 00:50:36;;;;;;;140.25;64.53;;;;;;;-3.03;86.00;99166.52;1868110;75;20942;-78
2020/12/19 00:53:02;;;;;;;131.93;65.67;;;;;;;-3.06;85.88;99170.34;1868234;76;20883;-83
2020/12/19 00:55:28;;;;;;;115.20;63.48;;;;;;;-3.07;85.92;99169.19;1868052;75;20911;-83
2020/12/19 00:57:54;;;;;;;118.77;64.75;;;;;;;-3.13;85.76;99174.14;1839349;76;22043;-78
2020/12/19 01:00:19;;;;;;;125.42;61.10;;;;;;;-3.12;85.73;99165.69;1868201;75;21435;-80
2020/12/19 01:02:46;;;;;;;127.62;60.28;;;;;;;-3.12;85.74;99165.19;1868078;76;20972;-84
2020/12/19 01:05:11;;;;;;;119.72;60.95;;;;;;;-3.21;85.15;99162.20;1868183;75;20977;-78
2020/12/19 01:07:38;;;;;;;120.15;58.73;;;;;;;-3.32;85.15;99166.50;1868199;76;20903;-83
2020/12/19 01:10:08;;;;;;;132.20;62.35;;;;;;;-3.33;85.24;99163.98;1839295;76;20999;-79
2020/12/19 01:12:33;;;;;;;139.37;64.55;;;;;;;-3.30;85.53;99160.53;1868089;76;21406;-83
2020/12/19 01:14:59;;;;;;;146.05;71.65;;;;;;;-3.32;85.56;99164.35;1867961;76;20879;-83
2020/12/19 01:17:26;;;;;;;136.18;65.28;;;;;;;-3.36;85.55;99157.20;1868077;76;20851;-78
2020/12/19 01:19:52;;;;;;;139.70;70.28;;;;;;;-3.33;85.59;99167.97;1868059;76;21206;-78
2020/12/19 01:22:18;;;;;;;130.47;64.05;;;;;;;-3.30;85.29;99164.51;1868120;76;20983;-78
2020/12/19 01:24:44;;;;;;;132.12;61.98;;;;;;;-3.29;85.22;99160.03;1868132;76;21475;-78
2020/12/19 01:27:10;;;;;;;124.50;64.53;;;;;;;-3.31;85.04;99165.51;1839207;76;21548;-78
2020/12/19 01:29:35;;;;;;;137.90;65.00;;;;;;;-3.33;84.56;99170.15;1868001;75;20962;-78
2020/12/19 01:32:02;;;;;;;147.15;69.82;;;;;;;-3.39;84.44;99164.17;1868111;76;21439;-78
2020/12/19 01:34:27;;;;;;;126.87;61.15;;;;;;;-3.38;84.57;99161.02;1868142;75;21708;-79
2020/12/19 01:36:53;;;;;;;130.00;62.25;;;;;;;-3.44;84.24;99158.02;1839018;76;21314;-84
2020/12/19 01:39:19;;;;;;;131.22;62.40;;;;;;;-3.41;84.80;99155.05;1868055;76;20903;-84
2020/12/19 01:41:45;;;;;;;130.50;65.17;;;;;;;-3.43;84.81;99152.22;1867996;75;20993;-84
2020/12/19 01:44:11;;;;;;;128.42;63.90;;;;;;;-3.50;84.82;99149.41;1868091;76;21096;-84
2020/12/19 01:46:57;;;;;;;145.02;69.80;;;;;;;-3.48;84.61;99150.56;1868005;76;20855;-78
2020/12/19 01:49:25;;;;;;;143.15;66.75;;;;;;;-3.69;83.85;99154.47;1868108;76;21212;-77
2020/12/19 01:51:55;;;;;;;117.95;53.55;;;;;;;-3.63;84.22;99151.68;1868004;75;21141;-77
2020/12/19 01:54:23;;;;;;;157.12;70.15;;;;;;;-3.65;84.37;99144.89;1868026;76;21535;-83
2020/12/19 01:56:53;;;;;;;129.87;64.30;;;;;;;-3.74;84.50;99153.31;1810945;76;21149;-78
2020/12/19 01:59:20;;;;;;;188.40;86.92;;;;;;;-3.73;84.33;99149.17;1867372;76;21144;-78
2020/12/19 02:01:57;;;;;;;256.15;108.87;;;;;;;-3.79;84.46;99147.66;1839229;76;21173;-78
2020/12/19 02:04:26;;;;;;;163.07;74.35;;;;;;;-3.81;84.36;99147.83;1865797;76;21106;-84
2020/12/19 02:06:54;;;;;;;151.97;74.32;;;;;;;-3.93;84.23;99143.82;1838992;76;21050;-84
2020/12/19 02:09:22;;;;;;;160.25;74.53;;;;;;;-3.99;84.64;99144.45;1868040;76;21148;-78
2020/12/19 02:11:48;;;;;;;138.30;64.72;;;;;;;-3.85;84.89;99133.72;1867913;76;20998;-84
2020/12/19 02:14:14;;;;;;;142.85;67.22;;;;;;;-3.80;84.70;99128.28;1839301;76;21568;-78
2020/12/19 02:16:41;;;;;;;155.90;73.22;;;;;;;-3.83;84.77;99126.47;1867876;76;21021;-78
2020/12/19 02:19:13;;;;;;;165.00;77.40;;;;;;;-3.88;84.47;99122.97;1849209;76;21022;-78
2020/12/19 02:21:41;;;;;;;161.45;78.92;;;;;;;-3.93;84.43;99122.63;1868019;76;21161;-83
2020/12/19 02:24:07;;;;;;;155.87;76.67;;;;;;;-3.88;84.47;99123.46;1867224;76;21074;-78
2020/12/19 02:26:33;;;;;;;154.47;74.07;;;;;;;-3.90;84.50;99122.80;1839075;76;21176;-84
2020/12/19 02:28:59;;;;;;;155.65;72.97;;;;;;;-3.86;84.71;99120.15;1867977;76;20868;-83
2020/12/19 02:31:25;;;;;;;148.05;68.60;;;;;;;-3.86;84.69;99120.98;1811929;76;21094;-84
2020/12/19 02:33:51;;;;;;;142.25;66.80;;;;;;;-3.87;84.38;99117.17;1867995;76;21525;-78
2020/12/19 02:36:17;;;;;;;135.22;63.48;;;;;;;-3.90;84.79;99114.85;1868013;76;20951;-78
2020/12/19 02:38:43;;;;;;;132.18;69.65;;;;;;;-3.91;84.32;99111.38;1868029;76;21352;-83
2020/12/19 02:41:09;;;;;;;131.32;63.25;;;;;;;-3.89;84.73;99109.39;1867834;76;20887;-83
2020/12/19 02:43:35;;;;;;;145.17;69.92;;;;;;;-3.90;85.27;99106.41;1867956;76;20879;-78
2020/12/19 02:46:00;;;;;;;140.33;69.03;;;;;;;-3.81;85.22;99109.91;1867998;76;20986;-78
2020/12/19 02:48:26;;;;;;;146.15;73.70;;;;;;;-3.84;84.73;99104.45;1868052;76;20963;-84
2020/12/19 02:50:55;;;;;;;146.98;73.72;;;;;;;-3.88;84.08;99109.72;1867971;75;21188;-83
2020/12/19 02:53:20;;;;;;;118.30;61.35;;;;;;;-3.91;84.05;99104.76;1867482;76;21125;-78
2020/12/19 02:55:46;;;;;;;143.10;66.22;;;;;;;-3.89;84.38;99090.85;1867818;76;20895;-83
2020/12/19 02:58:12;;;;;;;140.30;62.60;;;;;;;-4.09;84.21;99092.95;1868072;76;20899;-83
2020/12/19 03:00:38;;;;;;;121.67;62.78;;;;;;;-4.13;84.83;99094.24;1868011;75;20848;-84
2020/12/19 03:03:04;;;;;;;116.12;59.60;;;;;;;-4.09;86.12;99092.95;1839271;76;21283;-78
2020/12/19 03:05:30;;;;;;;130.10;62.13;;;;;;;-3.95;85.75;99086.69;1868004;75;20887;-83
2020/12/19 03:07:56;;;;;;;125.60;64.60;;;;;;;-3.92;85.49;99078.44;1867926;76;21007;-78
2020/12/19 03:10:24;;;;;;;126.50;63.55;;;;;;;-3.92;85.79;99073.14;1868001;76;21520;-84
2020/12/19 03:12:50;;;;;;;138.55;65.03;;;;;;;-3.87;85.61;99079.59;1867942;76;21541;-78
2020/12/19 03:15:15;;;;;;;112.05;56.20;;;;;;;-3.80;85.79;99068.69;1868086;76;21214;-84
2020/12/19 03:17:44;;;;;;;77.75;41.35;;;;;;;-3.71;85.62;99069.53;1868015;76;21843;-78
2020/12/19 03:20:09;;;;;;;115.47;55.88;;;;;;;-3.56;86.04;99057.80;1867532;76;21208;-84
2020/12/19 03:22:35;;;;;;;120.90;59.08;;;;;;;-3.47;85.72;99069.56;1868220;76;20923;-83
2020/12/19 03:25:03;;;;;;;127.10;60.85;;;;;;;-3.45;85.31;99070.72;1868063;76;20910;-83
2020/12/19 03:27:28;;;;;;;119.60;60.85;;;;;;;-3.56;83.91;99073.20;1868059;76;22055;-84
2020/12/19 03:29:54;;;;;;;119.72;59.65;;;;;;;-3.60;84.42;99081.63;1868026;76;20892;-81
2020/12/19 03:32:20;;;;;;;117.77;57.03;;;;;;;-3.63;84.48;99083.30;1839303;76;21018;-83
2020/12/19 03:34:46;;;;;;;104.90;45.28;;;;;;;-3.62;84.47;99079.15;1868147;76;20864;-78
2020/12/19 03:37:12;;;;;;;98.52;47.67;;;;;;;-3.61;84.69;99073.35;1868132;76;21120;-78
2020/12/19 03:39:38;;;;;;;103.62;49.13;;;;;;;-3.64;84.72;99070.55;1868157;76;21322;-83
2020/12/19 03:42:04;;;;;;;115.03;55.23;;;;;;;-3.64;84.83;99082.96;1839058;76;20899;-83
2020/12/19 03:44:30;;;;;;;117.33;55.23;;;;;;;-3.61;85.76;99075.50;1868218;76;20970;-78
2020/12/19 03:46:56;;;;;;;98.17;50.15;;;;;;;-3.73;83.90;99076.33;1868116;76;21459;-78
2020/12/19 03:49:22;;;;;;;109.27;53.08;;;;;;;-3.68;84.43;99067.88;1868137;76;20983;-84
2020/12/19 03:51:48;;;;;;;103.38;51.77;;;;;;;-3.74;84.42;99065.90;1868133;75;21178;-78
2020/12/19 03:54:14;;;;;;;109.00;53.17;;;;;;;-3.78;84.76;99064.05;1839275;76;21577;-78
2020/12/19 03:56:40;;;;;;;93.85;47.58;;;;;;;-3.74;84.87;99064.57;1867972;75;20883;-78
2020/12/19 03:59:06;;;;;;;103.97;51.63;;;;;;;-3.70;84.68;99057.94;1868137;76;21037;-83
2020/12/19 04:01:31;;;;;;;115.70;55.30;;;;;;;-3.76;84.22;99055.47;1868141;75;20875;-79
2020/12/19 04:03:57;;;;;;;109.40;52.35;;;;;;;-3.91;84.22;99037.23;1868121;76;22235;-78
2020/12/19 04:06:23;;;;;;;119.33;52.35;;;;;;;-3.87;84.00;99053.61;1867992;75;20864;-80
2020/12/19 04:08:50;;;;;;;113.50;55.50;;;;;;;-3.87;84.06;99054.93;1868149;76;20990;-83
2020/12/19 04:11:16;;;;;;;99.77;48.98;;;;;;;-3.93;84.06;99045.84;1812312;76;21069;-78
2020/12/19 04:13:42;;;;;;;102.20;47.33;;;;;;;-3.92;84.54;99044.02;1868184;76;20915;-78
2020/12/19 04:16:08;;;;;;;97.67;49.30;;;;;;;-3.86;84.44;99037.55;1868086;76;21599;-83
2020/12/19 04:18:34;;;;;;;82.35;43.38;;;;;;;-3.91;84.31;99031.11;1839050;76;21320;-78
2020/12/19 04:21:00;;;;;;;86.82;45.25;;;;;;;-3.94;84.54;99022.97;1868050;76;21005;-78
2020/12/19 04:23:26;;;;;;;97.27;45.08;;;;;;;-3.92;84.96;99013.06;1868131;76;21498;-79
2020/12/19 04:28:37;;;;;;;100.00;50.35;;;;;;;-3.97;83.93;99012.21;1841927;78;22380;-82
2020/12/19 04:31:03;;;;;;;96.40;45.12;;;;;;;-4.05;83.92;99004.25;1785509;79;20939;-78
2020/12/19 04:33:29;;;;;;;98.47;48.13;;;;;;;-4.00;84.25;99003.78;1774333;80;21365;-82
2020/12/19 04:35:55;;;;;;;96.85;48.13;;;;;;;-3.98;84.01;98998.64;1774209;79;20987;-82
2020/12/19 04:38:21;;;;;;;103.25;51.10;;;;;;;-4.01;84.13;98998.98;1774316;80;20987;-79
2020/12/19 04:40:48;;;;;;;101.70;51.10;;;;;;;-4.07;83.67;98998.30;1774264;79;21119;-77
2020/12/19 04:43:19;;;;;;;127.65;68.52;;;;;;;-4.04;84.03;99004.58;1774239;80;21047;-79
2020/12/19 04:45:46;;;;;;;120.00;56.45;;;;;;;-4.01;84.07;99000.80;1774250;79;21943;-79
2020/12/19 04:48:17;;;;;;;90.42;45.00;;;;;;;-4.00;83.97;98991.86;1774025;80;21150;-79
2020/12/19 04:50:44;;;;;;;84.05;44.18;;;;;;;-4.05;83.72;98993.66;1774190;79;21092;-79
2020/12/19 04:53:17;;;;;;;101.00;48.52;;;;;;;-4.06;83.85;98994.66;1750181;80;21602;-78
2020/12/19 04:55:44;;;;;;;87.20;42.95;;;;;;;-4.02;84.20;98987.20;1774170;79;21042;-84
2020/12/19 04:58:15;;;;;;;84.45;47.55;;;;;;;-3.95;84.54;98978.95;1774039;80;21154;-79
2020/12/19 05:00:42;;;;;;;104.63;50.45;;;;;;;-3.90;84.70;98985.09;1774115;79;21071;-78
2020/12/19 05:03:08;;;;;;;139.28;59.30;;;;;;;-3.90;85.81;98983.27;1775829;80;21567;-77
2020/12/19 05:05:36;;;;;;;165.75;74.92;;;;;;;-3.89;84.63;98987.56;1774160;79;21150;-82
2020/12/19 05:08:02;;;;;;;148.67;64.57;;;;;;;-3.96;83.71;98986.56;1774373;80;21019;-78
2020/12/19 05:10:28;;;;;;;144.85;59.65;;;;;;;-4.00;83.56;98982.59;1774196;79;21196;-78
2020/12/19 05:12:54;;;;;;;104.40;51.50;;;;;;;-4.06;84.02;98989.36;1750246;80;21059;-81
2020/12/19 05:15:21;;;;;;;97.70;44.60;;;;;;;-4.07;84.13;98986.39;1774052;79;21098;-82
2020/12/19 05:17:56;;;;;;;101.82;50.10;;;;;;;-3.99;84.57;98979.78;1774063;80;21143;-82
2020/12/19 05:20:23;;;;;;;96.30;46.28;;;;;;;-4.00;84.31;98978.63;1774134;79;21023;-82
2020/12/19 05:22:51;;;;;;;88.15;42.62;;;;;;;-4.05;84.29;98976.95;1774102;80;21188;-79
2020/12/19 05:25:19;;;;;;;74.32;39.38;;;;;;;-4.11;83.97;98982.39;1773118;79;21123;-79
2020/12/19 05:27:45;;;;;;;83.83;42.37;;;;;;;-4.18;83.68;98988.52;1774196;80;21055;-78
2020/12/19 05:30:12;;;;;;;99.40;45.65;;;;;;;-4.16;83.82;98984.72;1774127;79;21123;-78
2020/12/19 05:32:47;;;;;;;86.55;43.87;;;;;;;-4.18;83.94;98989.35;1775863;80;21118;-83
2020/12/19 05:35:14;;;;;;;86.82;43.40;;;;;;;-4.23;83.89;98985.52;1750564;80;21276;-78
2020/12/19 05:37:40;;;;;;;84.47;40.67;;;;;;;-4.32;83.93;98993.94;1773933;80;21079;-78
2020/12/19 05:40:09;;;;;;;97.45;46.23;;;;;;;-4.31;84.07;98987.65;1749739;80;20987;-78
2020/12/19 05:42:37;;;;;;;90.97;45.12;;;;;;;-4.34;84.12;98998.57;1773074;81;21815;-82
2020/12/19 05:45:15;;;;;;;112.30;46.60;;;;;;;-4.43;83.99;98993.75;1773607;79;21444;-82
2020/12/19 05:47:41;;;;;;;81.27;44.03;;;;;;;-4.40;84.72;98989.94;1773755;80;21161;-81
2020/12/19 05:50:08;;;;;;;90.03;42.03;;;;;;;-4.31;85.07;98993.77;1773460;79;21054;-78
2020/12/19 05:52:35;;;;;;;78.20;40.43;;;;;;;-4.23;84.68;98990.81;1773551;80;21126;-82
2020/12/19 05:55:02;;;;;;;77.15;40.92;;;;;;;-4.24;84.36;98991.31;1775232;79;21035;-82
2020/12/19 05:57:28;;;;;;;85.57;39.55;;;;;;;-4.28;84.57;98993.44;1773565;81;21516;-82
2020/12/19 05:59:54;;;;;;;82.30;39.92;;;;;;;-4.27;84.38;99000.91;1773469;79;21912;-78
2020/12/19 06:02:20;;;;;;;91.22;48.83;;;;;;;-4.30;84.24;99006.50;1773357;80;21026;-78
2020/12/19 06:04:47;;;;;;;97.17;48.02;;;;;;;-4.23;84.41;99008.84;1773568;79;21241;-82
2020/12/19 06:07:13;;;;;;;98.92;50.98;;;;;;;-4.25;84.04;99010.83;1750424;80;21054;-78
2020/12/19 06:09:41;;;;;;;95.70;46.60;;;;;;;-4.26;83.68;99011.83;1749784;79;21635;-82
2020/12/19 06:12:17;;;;;;;93.40;44.30;;;;;;;-4.22;83.84;99012.32;1773809;81;21476;-77
2020/12/19 06:14:45;;;;;;;101.47;49.65;;;;;;;-4.27;83.54;99008.36;1773395;79;21106;-83
2020/12/19 06:17:14;;;;;;;;;;;;;;;-4.34;83.45;99002.04;1776094;80;21055;-83
2020/12/19 06:19:41;;;;;;;79.90;41.60;;;;;;;-4.43;83.17;99010.95;1773373;79;20239;-83
2020/12/19 06:22:06;;;;;;;87.05;45.98;;;;;;;-4.52;83.16;99007.94;1749548;81;21475;-83
2020/12/19 06:24:43;;;;;;;82.88;44.27;;;;;;;-4.44;83.34;99008.44;1773500;79;22134;-83
2020/12/19 06:27:26;;;;;;;89.37;46.05;;;;;;;-4.49;83.32;99012.07;1773471;80;21740;-82
2020/12/19 06:29:52;;;;;;;81.55;39.48;;;;;;;-4.46;83.38;99020.50;1773023;79;21259;-78
2020/12/19 06:32:23;;;;;;;79.90;38.25;;;;;;;-4.44;83.38;99018.55;1773464;80;20972;-78
2020/12/19 06:35:06;;;;;;;78.83;39.08;;;;;;;-4.48;83.47;99019.02;1773371;79;21146;-82
2020/12/19 06:37:37;;;;;;;84.55;44.03;;;;;;;-4.46;84.37;99025.80;1772281;80;21913;-78
2020/12/19 06:40:11;;;;;;;75.42;40.40;;;;;;;-4.39;84.04;99026.83;1773440;79;21476;-83
2020/12/19 06:42:37;;;;;;;86.65;40.75;;;;;;;-4.32;84.27;99029.17;1773570;81;21095;-83
2020/12/19 06:45:29;;;;;;;108.80;52.88;;;;;;;-4.23;84.19;99028.70;1773588;79;21466;-79
2020/12/19 06:47:56;;;;;;;86.72;39.73;;;;;;;-4.25;83.79;99032.01;1773574;80;21059;-83
2020/12/19 06:50:22;;;;;;;86.35;42.50;;;;;;;-4.21;83.96;99044.41;1773455;79;21343;-83
2020/12/19 06:52:58;;;;;;;91.15;45.73;;;;;;;-4.16;84.11;99044.77;1773393;81;21138;-83
2020/12/19 06:55:29;;;;;;;122.05;54.93;;;;;;;-4.19;83.78;99047.23;1773085;79;21467;-79
2020/12/19 06:57:56;;;;;;;192.37;106.97;;;;;;;-4.23;83.31;99052.52;1773533;81;21111;-78
2020/12/19 07:00:30;;;;;;;176.10;85.65;;;;;;;-4.32;83.82;99053.48;1725151;81;21488;-82
2020/12/19 07:03:03;;;;;;;162.85;74.22;;;;;;;-4.22;83.63;99056.00;1773482;81;21173;-79
2020/12/19 07:05:32;;;;;;;171.70;80.03;;;;;;;-4.21;83.51;99054.50;1773487;79;21551;-83
2020/12/19 07:08:20;;;;;;;172.90;76.02;;;;;;;-4.17;83.66;99053.71;1773374;80;21126;-79
2020/12/19 07:10:46;;;;;;;163.52;78.37;;;;;;;-4.06;83.95;99058.70;1773499;79;21167;-78
2020/12/19 07:13:12;;;;;;;140.85;67.25;;;;;;;-3.99;83.66;99066.34;1773537;81;21059;-78
2020/12/19 07:15:48;;;;;;;204.97;95.17;;;;;;;-4.07;82.61;99067.14;1773606;79;21118;-78
2020/12/19 07:18:32;;;;;;;201.92;95.35;;;;;;;-4.09;82.64;99068.30;1773544;81;21511;-79
2020/12/19 07:21:03;;;;;;;217.00;100.20;;;;;;;-4.12;82.32;99073.39;1773498;79;21575;-82
2020/12/19 07:23:32;;;;;;;203.55;89.87;;;;;;;-4.08;82.77;99074.75;1773479;81;21127;-78
2020/12/19 07:25:58;;;;;;;192.72;85.38;;;;;;;-4.00;83.01;99073.95;1772986;79;21182;-79
2020/12/19 07:28:27;;;;;;;169.82;82.22;;;;;;;-3.96;83.07;99071.30;1749467;81;21317;-83
2020/12/19 07:30:54;;;;;;;176.27;79.05;;;;;;;-3.97;82.70;99073.12;1773216;79;21131;-83
2020/12/19 07:33:20;;;;;;;196.05;86.90;;;;;;;-3.94;83.06;99079.07;1773402;81;21146;-83
2020/12/19 07:35:46;;;;;;;170.80;80.57;;;;;;;-3.88;83.10;99080.59;1775180;79;20932;-78
2020/12/19 07:38:15;;;;;;;181.67;85.92;;;;;;;-3.89;82.70;99079.43;1773504;80;21055;-79
2020/12/19 07:40:40;;;;;;;170.27;78.93;;;;;;;-3.96;82.66;99080.56;1750121;80;21102;-79
2020/12/19 07:43:10;;;;;;;175.60;82.08;;;;;;;-3.91;82.87;99078.27;1773529;81;20936;-80
2020/12/19 07:45:37;;;;;;;172.00;77.65;;;;;;;-3.91;82.87;99079.59;1773451;79;21173;-79
2020/12/19 07:48:04;;;;;;;179.40;85.25;;;;;;;-3.88;83.08;99081.91;1773308;80;21170;-79
2020/12/19 07:50:34;;;;;;;170.60;82.45;;;;;;;-3.88;82.96;99075.29;1773534;79;21143;-78
2020/12/19 07:53:06;;;;;;;168.20;84.42;;;;;;;-3.75;83.29;99075.66;1775247;79;21107;-78
2020/12/19 07:55:33;;;;;;;159.18;76.70;;;;;;;-3.66;83.03;99073.03;1774450;80;21122;-79
2020/12/19 07:58:00;;;;;;;229.07;112.10;;;;;;;-3.52;83.45;99069.72;1773423;81;21189;-82
2020/12/19 08:00:26;;;;;;;162.97;82.72;;;;;;;-3.41;83.05;99071.57;1773402;79;21166;-79
2020/12/19 08:02:52;;;;;;;153.10;76.37;;;;;;;-3.32;82.91;99068.42;1773432;81;21028;-83
2020/12/19 08:05:18;;;;;;;146.87;75.05;;;;;;;-3.19;83.27;99072.72;1773473;79;21260;-83
2020/12/19 08:07:44;;;;;;;137.47;73.67;;;;;;;-3.10;83.20;99075.36;1773441;81;21468;-83
2020/12/19 08:10:11;;;;;;;144.25;74.92;;;;;;;-3.06;83.10;99070.90;1773442;79;20943;-82
2020/12/19 08:12:39;;;;;;;155.50;79.95;;;;;;;-3.01;82.91;99071.20;1773430;80;21177;-79
2020/12/19 08:15:10;;;;;;;154.50;81.45;;;;;;;-2.96;82.96;99066.73;1773499;79;21035;-79
2020/12/19 08:17:40;;;;;;;148.93;73.62;;;;;;;-2.90;83.15;99064.25;1773428;81;21227;-78
2020/12/19 08:20:06;;;;;;;150.00;76.62;;;;;;;-2.82;83.14;99063.38;1772417;79;21114;-78
2020/12/19 08:22:34;;;;;;;150.38;74.87;;;;;;;-2.78;83.01;99061.23;1773449;80;20935;-83
2020/12/19 08:25:00;;;;;;;153.20;79.72;;;;;;;-2.81;83.10;99059.77;1774774;80;21059;-78
2020/12/19 08:27:32;;;;;;;151.12;81.55;;;;;;;-2.77;83.75;99054.43;1773389;80;21045;-82
2020/12/19 08:30:19;;;;;;;144.68;76.40;;;;;;;-2.64;83.99;99065.86;1773463;79;22189;-84
2020/12/19 08:32:58;;;;;;;150.32;81.78;;;;;;;-2.55;83.74;99067.48;1749391;80;21238;-77
2020/12/19 08:35:40;;;;;;;148.80;78.90;;;;;;;-2.54;83.55;99069.64;1749667;81;21055;-77
2020/12/19 08:38:14;;;;;;;152.15;82.05;;;;;;;-2.44;83.92;99072.42;1750101;80;21662;-78
2020/12/19 08:40:48;;;;;;;150.53;78.45;;;;;;;-2.37;83.90;99077.88;1775221;80;21007;-79
2020/12/19 08:43:15;;;;;;;135.82;75.83;;;;;;;-2.27;83.93;99079.83;1773386;80;22007;-82
2020/12/19 08:45:44;;;;;;;139.80;82.00;;;;;;;-2.15;84.25;99078.94;1773367;79;21496;-78
2020/12/19 08:48:20;;;;;;;131.18;73.12;;;;;;;-2.05;84.14;99071.12;1773494;81;21651;-82
2020/12/19 08:50:47;;;;;;;110.85;61.05;;;;;;;-1.95;84.01;99070.08;1773472;79;21166;-82
2020/12/19 08:53:23;;;;;;;122.85;65.65;;;;;;;-1.86;83.88;99073.01;1773345;80;21575;-82
2020/12/19 08:55:52;;;;;;;95.15;56.37;;;;;;;-1.80;83.97;99069.13;1773415;79;21130;-78
2020/12/19 08:58:28;;;;;;;102.87;55.52;;;;;;;-1.74;83.82;99069.77;1772721;80;21150;-78
2020/12/19 09:01:14;;;;;;;104.65;57.23;;;;;;;-1.75;84.10;99066.79;1773456;80;21555;-82
2020/12/19 09:03:40;;;;;;;128.32;66.72;;;;;;;-1.65;84.07;99057.76;1773409;81;21142;-81
2020/12/19 09:06:12;;;;;;;163.90;83.97;;;;;;;-1.56;84.19;99060.69;1773446;79;21092;-78
2020/12/19 09:08:46;;;;;;;139.20;75.67;;;;;;;-1.63;84.46;99050.42;1773380;80;21220;-78
2020/12/19 09:11:29;;;;;;;150.40;82.02;;;;;;;-1.51;84.20;99055.67;1773372;79;21131;-82
2020/12/19 09:14:11;;;;;;;138.55;76.10;;;;;;;-1.43;84.18;99046.31;1773379;80;21023;-78
2020/12/19 09:16:51;;;;;;;143.40;74.45;;;;;;;-1.31;84.28;99036.07;1772111;79;21146;-82
2020/12/19 09:19:18;;;;;;;162.70;99.97;;;;;;;-1.23;84.26;99036.83;1773674;80;21091;-83
2020/12/19 09:22:00;;;;;;;174.20;88.95;;;;;;;-1.17;84.37;99029.98;1773480;79;21162;-79
2020/12/19 09:24:26;;;;;;;180.12;89.07;;;;;;;-1.14;84.61;99033.09;1773594;80;21566;-77
2020/12/19 09:26:52;;;;;;;159.40;84.37;;;;;;;-1.08;84.81;99022.75;1773473;79;21067;-77
2020/12/19 09:29:18;;;;;;;153.15;81.82;;;;;;;-0.98;84.59;99017.98;1773475;80;20960;-77
2020/12/19 09:31:44;;;;;;;144.28;82.42;;;;;;;-0.87;84.54;99022.85;1773634;79;20905;-82
2020/12/19 09:36:52;;;;;;;188.82;118.28;;;;;;;-0.63;84.99;99016.45;1851906;77;21951;-78
2020/12/19 09:39:18;;;;;;;210.78;133.55;;;;;;;-0.64;84.47;99015.63;1819805;78;20920;-81
2020/12/19 09:41:44;;;;;;;181.30;112.17;;;;;;;-0.58;84.64;99012.74;1819705;78;21113;-77
2020/12/19 09:44:10;;;;;;;162.97;101.22;;;;;;;-0.49;84.74;99008.15;1819753;78;21027;-77
2020/12/19 09:46:36;;;;;;;137.72;76.62;;;;;;;-0.40;84.77;99001.20;1819603;78;20943;-77
2020/12/19 09:49:02;;;;;;;201.55;122.10;;;;;;;-0.28;85.03;99001.54;1819771;78;20990;-77
2020/12/19 09:51:31;;;;;;;174.77;105.83;;;;;;;-0.16;84.73;99001.91;1819724;78;20928;-81
2020/12/19 09:53:56;;;;;;;;;;;;;;;-0.08;85.04;98997.80;1822309;78;21264;-82
2020/12/19 09:56:24;;;;;;;163.50;88.17;;;;;;;-0.01;85.21;98990.17;1819507;78;20167;-82
2020/12/19 09:58:50;;;;;;;160.63;92.80;;;;;;;0.06;85.20;98985.43;1819605;78;21134;-82
2020/12/19 10:01:16;;;;;;;146.77;87.47;;;;;;;0.14;85.54;98982.65;1819633;78;20975;-82
2020/12/19 10:03:42;;;;;;;139.82;74.32;;;;;;;0.21;84.93;98975.05;1819815;78;20912;-78
2020/12/19 10:06:12;;;;;;;143.43;80.57;;;;;;;0.31;84.89;98978.72;1819707;78;22012;-78
2020/12/19 10:08:38;;;;;;;143.90;88.95;;;;;;;0.41;84.90;98979.22;1788895;78;21130;-78
2020/12/19 10:11:04;;;;;;;163.97;101.58;;;;;;;0.51;84.90;98981.56;1819749;78;21015;-82
2020/12/19 10:13:30;;;;;;;167.82;103.17;;;;;;;0.60;84.96;98979.11;1814833;78;21459;-78
2020/12/19 10:15:56;;;;;;;159.60;101.33;;;;;;;0.71;85.87;98975.08;1819665;78;21020;-78
2020/12/19 10:18:22;;;;;;;113.25;71.17;;;;;;;0.81;85.37;98970.23;1819732;78;21451;-82
2020/12/19 10:20:49;;;;;;;127.45;72.80;;;;;;;0.93;85.64;98963.83;1819674;78;20931;-78
2020/12/19 10:23:15;;;;;;;167.03;100.15;;;;;;;1.06;86.08;98963.94;1819728;78;21171;-81
2020/12/19 10:25:41;;;;;;;117.53;70.30;;;;;;;1.21;85.74;98967.84;1762042;78;21534;-78
2020/12/19 10:28:07;;;;;;;124.82;73.55;;;;;;;1.35;86.00;98969.55;1819862;78;21016;-82
2020/12/19 10:30:32;;;;;;;154.82;83.45;;;;;;;1.49;86.08;98959.25;1788145;78;21274;-78
2020/12/19 10:32:58;;;;;;;149.77;81.42;;;;;;;1.60;85.95;98960.01;1819755;78;20995;-83
2020/12/19 10:35:24;;;;;;;120.08;70.60;;;;;;;1.73;85.78;98954.42;1819594;78;21019;-78
2020/12/19 10:37:51;;;;;;;133.82;66.75;;;;;;;1.83;85.53;98950.85;1819706;78;21130;-82
2020/12/19 10:40:17;;;;;;;204.23;97.00;;;;;;;1.89;84.94;98951.39;1819628;78;21134;-81
2020/12/19 10:42:43;;;;;;;250.82;109.37;;;;;;;1.94;85.25;98944.40;1819622;78;21751;-78
2020/12/19 10:45:09;;;;;;;192.55;88.85;;;;;;;2.00;85.73;98951.31;1787748;78;21078;-78
2020/12/19 10:47:35;;;;;;;190.35;89.25;;;;;;;2.09;85.80;98938.89;1819230;78;21610;-78
2020/12/19 10:50:01;;;;;;;137.18;68.62;;;;;;;2.21;85.71;98941.78;1818999;78;20892;-78
2020/12/19 10:52:27;;;;;;;131.57;67.22;;;;;;;2.32;85.60;98936.36;1819147;78;20932;-78
2020/12/19 10:54:55;;;;;;;119.80;64.15;;;;;;;2.38;86.08;98935.01;1818956;78;22146;-78
2020/12/19 10:57:21;;;;;;;163.40;85.92;;;;;;;2.45;85.69;98933.16;1818994;78;21138;-81
2020/12/19 10:59:47;;;;;;;150.65;80.25;;;;;;;2.50;85.60;98929.38;1819025;78;20940;-81
2020/12/19 11:02:13;;;;;;;171.30;84.13;;;;;;;2.55;85.73;98928.22;1819035;78;21217;-81
2020/12/19 11:04:39;;;;;;;212.20;101.33;;;;;;;2.62;85.75;98932.24;1814031;78;20961;-77
2020/12/19 11:07:05;;;;;;;187.50;95.32;;;;;;;2.71;85.59;98927.50;1787291;78;21226;-81
2020/12/19 11:09:31;;;;;;;125.07;66.15;;;;;;;2.78;85.59;98920.30;1818934;78;21410;-78
2020/12/19 11:11:57;;;;;;;92.35;49.58;;;;;;;2.82;85.47;98923.70;1787131;78;20904;-81
2020/12/19 11:14:24;;;;;;;121.62;60.55;;;;;;;2.88;85.39;98919.35;1818983;78;20889;-77
2020/12/19 11:16:52;;;;;;;130.32;62.25;;;;;;;2.97;85.02;98915.94;1818842;78;21467;-81
2020/12/19 11:19:18;;;;;;;78.25;40.88;;;;;;;3.09;85.03;98921.80;1818835;78;21551;-78
2020/12/19 11:21:45;;;;;;;80.85;41.18;;;;;;;3.19;85.04;98923.22;1818730;78;20908;-80